sensor_id;sensor_type;location;lat;lon;timestamp;P1;durP1;ratioP1;P2;durP2;ratioP2
57463;SDS011;43309;44.418;26.122;2023-01-28T00:01:57;7.10;;;3.50;;
57463;SDS011;43309;44.418;26.122;2023-01-28T00:04:24;9.30;;;4.20;;
57463;SDS011;43309;44.418;26.122;2023-01-28T00:06:51;10.20;;;3.80;;
57463;SDS011;43309;44.418;26.122;2023-01-28T00:09:19;9.40;;;3.60;;
57463;SDS011;43309;44.418;26.122;2023-01-28T00:11:47;9.10;;;4.20;;
57463;SDS011;43309;44.418;26.122;2023-01-28T00:14:14;7.00;;;3.80;;
57463;SDS011;43309;44.418;26.122;2023-01-28T00:16:41;9.60;;;4.20;;
57463;SDS011;43309;44.418;26.122;2023-01-28T00:19:08;9.20;;;4.20;;
57463;SDS011;43309;44.418;26.122;2023-01-28T00:21:35;6.20;;;3.50;;
57463;SDS011;43309;44.418;26.122;2023-01-28T00:24:03;7.00;;;3.30;;
57463;SDS011;43309;44.418;26.122;2023-01-28T00:26:32;9.50;;;3.30;;
57463;SDS011;43309;44.418;26.122;2023-01-28T00:28:59;6.20;;;3.70;;
57463;SDS011;43309;44.418;26.122;2023-01-28T00:31:27;7.70;;;3.50;;
57463;SDS011;43309;44.418;26.122;2023-01-28T00:33:55;7.10;;;4.00;;
57463;SDS011;43309;44.418;26.122;2023-01-28T00:36:23;7.20;;;3.90;;
57463;SDS011;43309;44.418;26.122;2023-01-28T00:38:52;6.30;;;3.60;;
57463;SDS011;43309;44.418;26.122;2023-01-28T00:41:25;7.10;;;3.50;;
57463;SDS011;43309;44.418;26.122;2023-01-28T00:43:54;8.20;;;4.10;;
57463;SDS011;43309;44.418;26.122;2023-01-28T00:46:22;11.60;;;3.80;;
57463;SDS011;43309;44.418;26.122;2023-01-28T00:48:51;6.00;;;3.30;;
57463;SDS011;43309;44.418;26.122;2023-01-28T00:51:18;8.80;;;3.80;;
57463;SDS011;43309;44.418;26.122;2023-01-28T00:53:46;8.10;;;3.40;;
57463;SDS011;43309;44.418;26.122;2023-01-28T00:56:15;6.30;;;3.20;;
57463;SDS011;43309;44.418;26.122;2023-01-28T00:58:42;4.80;;;3.10;;
57463;SDS011;43309;44.418;26.122;2023-01-28T01:01:11;5.50;;;3.20;;
57463;SDS011;43309;44.418;26.122;2023-01-28T01:03:40;7.70;;;3.50;;
57463;SDS011;43309;44.418;26.122;2023-01-28T01:06:07;7.50;;;3.60;;
57463;SDS011;43309;44.418;26.122;2023-01-28T01:08:35;4.70;;;3.00;;
57463;SDS011;43309;44.418;26.122;2023-01-28T01:11:06;8.10;;;3.40;;
57463;SDS011;43309;44.418;26.122;2023-01-28T01:13:34;5.70;;;3.30;;
57463;SDS011;43309;44.418;26.122;2023-01-28T01:16:06;4.00;;;3.00;;
57463;SDS011;43309;44.418;26.122;2023-01-28T01:18:35;5.20;;;3.10;;
57463;SDS011;43309;44.418;26.122;2023-01-28T01:21:06;7.30;;;3.30;;
57463;SDS011;43309;44.418;26.122;2023-01-28T01:26:02;6.40;;;2.90;;
57463;SDS011;43309;44.418;26.122;2023-01-28T01:28:30;4.60;;;3.20;;
57463;SDS011;43309;44.418;26.122;2023-01-28T01:30:59;5.30;;;3.00;;
57463;SDS011;43309;44.418;26.122;2023-01-28T01:33:28;4.80;;;3.20;;
57463;SDS011;43309;44.418;26.122;2023-01-28T01:35:56;6.40;;;2.80;;
57463;SDS011;43309;44.418;26.122;2023-01-28T01:38:24;11.30;;;3.30;;
57463;SDS011;43309;44.418;26.122;2023-01-28T01:40:55;5.90;;;3.00;;
57463;SDS011;43309;44.418;26.122;2023-01-28T01:43:43;6.00;;;3.30;;
57463;SDS011;43309;44.418;26.122;2023-01-28T01:46:13;4.70;;;3.10;;
57463;SDS011;43309;44.418;26.122;2023-01-28T01:48:42;7.10;;;3.00;;
57463;SDS011;43309;44.418;26.122;2023-01-28T01:51:10;4.70;;;3.00;;
57463;SDS011;43309;44.418;26.122;2023-01-28T01:53:40;6.50;;;2.70;;
57463;SDS011;43309;44.418;26.122;2023-01-28T01:56:09;5.00;;;2.90;;
57463;SDS011;43309;44.418;26.122;2023-01-28T02:01:09;4.90;;;2.90;;
57463;SDS011;43309;44.418;26.122;2023-01-28T02:06:14;6.10;;;3.10;;
57463;SDS011;43309;44.418;26.122;2023-01-28T02:08:41;5.20;;;2.90;;
57463;SDS011;43309;44.418;26.122;2023-01-28T02:11:11;5.20;;;2.90;;
57463;SDS011;43309;44.418;26.122;2023-01-28T02:13:41;5.50;;;2.60;;
57463;SDS011;43309;44.418;26.122;2023-01-28T02:16:11;5.60;;;2.70;;
57463;SDS011;43309;44.418;26.122;2023-01-28T02:18:39;7.10;;;3.00;;
57463;SDS011;43309;44.418;26.122;2023-01-28T02:27:52;6.10;;;2.80;;
57463;SDS011;43309;44.418;26.122;2023-01-28T02:30:32;9.50;;;2.80;;
57463;SDS011;43309;44.418;26.122;2023-01-28T02:32:52;6.80;;;3.00;;
57463;SDS011;43309;44.418;26.122;2023-01-28T02:35:30;3.60;;;2.50;;
57463;SDS011;43309;44.418;26.122;2023-01-28T02:38:04;6.50;;;2.80;;
57463;SDS011;43309;44.418;26.122;2023-01-28T02:40:35;4.90;;;2.50;;
57463;SDS011;43309;44.418;26.122;2023-01-28T02:43:43;4.90;;;2.60;;
57463;SDS011;43309;44.418;26.122;2023-01-28T02:49:12;8.40;;;3.10;;
57463;SDS011;43309;44.418;26.122;2023-01-28T02:57:28;3.30;;;2.40;;
57463;SDS011;43309;44.418;26.122;2023-01-28T03:03:09;4.60;;;2.40;;
57463;SDS011;43309;44.418;26.122;2023-01-28T03:05:57;6.00;;;2.60;;
57463;SDS011;43309;44.418;26.122;2023-01-28T03:08:34;5.40;;;2.40;;
57463;SDS011;43309;44.418;26.122;2023-01-28T03:11:22;4.10;;;2.40;;
57463;SDS011;43309;44.418;26.122;2023-01-28T03:14:09;3.40;;;2.30;;
57463;SDS011;43309;44.418;26.122;2023-01-28T03:16:56;2.90;;;2.20;;
57463;SDS011;43309;44.418;26.122;2023-01-28T03:19:44;5.10;;;2.60;;
57463;SDS011;43309;44.418;26.122;2023-01-28T03:22:31;4.50;;;2.40;;
57463;SDS011;43309;44.418;26.122;2023-01-28T03:25:19;2.90;;;2.10;;
57463;SDS011;43309;44.418;26.122;2023-01-28T03:28:08;3.20;;;2.50;;
57463;SDS011;43309;44.418;26.122;2023-01-28T03:30:57;7.30;;;2.20;;
57463;SDS011;43309;44.418;26.122;2023-01-28T03:33:47;3.60;;;2.40;;
57463;SDS011;43309;44.418;26.122;2023-01-28T03:36:35;2.70;;;2.20;;
57463;SDS011;43309;44.418;26.122;2023-01-28T03:39:22;4.70;;;2.40;;
57463;SDS011;43309;44.418;26.122;2023-01-28T03:42:25;2.80;;;2.20;;
57463;SDS011;43309;44.418;26.122;2023-01-28T03:44:45;3.70;;;2.00;;
57463;SDS011;43309;44.418;26.122;2023-01-28T03:47:16;6.80;;;2.50;;
57463;SDS011;43309;44.418;26.122;2023-01-28T03:49:45;7.30;;;2.40;;
57463;SDS011;43309;44.418;26.122;2023-01-28T03:52:17;7.70;;;2.20;;
57463;SDS011;43309;44.418;26.122;2023-01-28T03:54:49;5.70;;;2.60;;
57463;SDS011;43309;44.418;26.122;2023-01-28T03:57:21;6.40;;;2.20;;
57463;SDS011;43309;44.418;26.122;2023-01-28T03:59:50;7.10;;;2.40;;
57463;SDS011;43309;44.418;26.122;2023-01-28T04:02:19;4.60;;;2.10;;
57463;SDS011;43309;44.418;26.122;2023-01-28T04:04:48;5.00;;;2.30;;
57463;SDS011;43309;44.418;26.122;2023-01-28T04:07:16;3.20;;;2.20;;
57463;SDS011;43309;44.418;26.122;2023-01-28T04:09:43;9.10;;;2.50;;
57463;SDS011;43309;44.418;26.122;2023-01-28T04:12:11;3.20;;;2.00;;
57463;SDS011;43309;44.418;26.122;2023-01-28T04:14:38;4.10;;;2.30;;
57463;SDS011;43309;44.418;26.122;2023-01-28T04:17:06;3.90;;;2.00;;
57463;SDS011;43309;44.418;26.122;2023-01-28T04:19:36;5.80;;;2.20;;
57463;SDS011;43309;44.418;26.122;2023-01-28T04:22:04;5.80;;;1.80;;
57463;SDS011;43309;44.418;26.122;2023-01-28T04:24:32;4.70;;;2.00;;
57463;SDS011;43309;44.418;26.122;2023-01-28T04:26:59;3.50;;;2.50;;
57463;SDS011;43309;44.418;26.122;2023-01-28T04:29:27;4.40;;;2.20;;
57463;SDS011;43309;44.418;26.122;2023-01-28T04:31:54;6.00;;;2.30;;
57463;SDS011;43309;44.418;26.122;2023-01-28T04:34:22;4.00;;;2.20;;
57463;SDS011;43309;44.418;26.122;2023-01-28T04:36:49;7.10;;;1.90;;
57463;SDS011;43309;44.418;26.122;2023-01-28T04:39:16;5.20;;;2.10;;
57463;SDS011;43309;44.418;26.122;2023-01-28T04:41:43;8.20;;;2.20;;
57463;SDS011;43309;44.418;26.122;2023-01-28T04:44:10;4.20;;;1.90;;
57463;SDS011;43309;44.418;26.122;2023-01-28T04:46:39;6.00;;;2.00;;
57463;SDS011;43309;44.418;26.122;2023-01-28T04:49:06;5.90;;;2.00;;
57463;SDS011;43309;44.418;26.122;2023-01-28T04:51:33;4.80;;;2.00;;
57463;SDS011;43309;44.418;26.122;2023-01-28T04:54:01;4.00;;;2.60;;
57463;SDS011;43309;44.418;26.122;2023-01-28T04:56:28;4.90;;;2.10;;
57463;SDS011;43309;44.418;26.122;2023-01-28T04:58:55;3.90;;;2.30;;
57463;SDS011;43309;44.418;26.122;2023-01-28T05:01:23;4.50;;;2.60;;
57463;SDS011;43309;44.418;26.122;2023-01-28T05:03:51;5.50;;;2.10;;
57463;SDS011;43309;44.418;26.122;2023-01-28T05:06:18;4.50;;;2.20;;
57463;SDS011;43309;44.418;26.122;2023-01-28T05:08:45;4.80;;;1.70;;
57463;SDS011;43309;44.418;26.122;2023-01-28T05:11:13;5.00;;;1.90;;
57463;SDS011;43309;44.418;26.122;2023-01-28T05:13:40;3.10;;;2.00;;
57463;SDS011;43309;44.418;26.122;2023-01-28T05:16:07;6.80;;;2.10;;
57463;SDS011;43309;44.418;26.122;2023-01-28T05:18:34;2.70;;;1.80;;
57463;SDS011;43309;44.418;26.122;2023-01-28T05:21:01;4.10;;;1.90;;
57463;SDS011;43309;44.418;26.122;2023-01-28T05:23:29;4.70;;;2.20;;
57463;SDS011;43309;44.418;26.122;2023-01-28T05:25:56;4.50;;;1.90;;
57463;SDS011;43309;44.418;26.122;2023-01-28T05:28:23;4.00;;;1.90;;
57463;SDS011;43309;44.418;26.122;2023-01-28T05:30:50;3.00;;;2.00;;
57463;SDS011;43309;44.418;26.122;2023-01-28T05:33:18;3.40;;;1.70;;
57463;SDS011;43309;44.418;26.122;2023-01-28T05:35:45;2.10;;;1.70;;
57463;SDS011;43309;44.418;26.122;2023-01-28T05:38:12;3.30;;;1.70;;
57463;SDS011;43309;44.418;26.122;2023-01-28T05:40:40;2.90;;;1.80;;
57463;SDS011;43309;44.418;26.122;2023-01-28T05:43:07;3.30;;;1.90;;
57463;SDS011;43309;44.418;26.122;2023-01-28T05:45:34;3.20;;;1.80;;
57463;SDS011;43309;44.418;26.122;2023-01-28T05:48:01;2.90;;;1.70;;
57463;SDS011;43309;44.418;26.122;2023-01-28T05:50:29;3.10;;;2.00;;
57463;SDS011;43309;44.418;26.122;2023-01-28T05:52:56;3.10;;;1.70;;
57463;SDS011;43309;44.418;26.122;2023-01-28T05:55:23;2.40;;;1.90;;
57463;SDS011;43309;44.418;26.122;2023-01-28T05:57:50;3.50;;;1.50;;
57463;SDS011;43309;44.418;26.122;2023-01-28T06:00:18;3.50;;;1.70;;
57463;SDS011;43309;44.418;26.122;2023-01-28T06:02:46;3.40;;;1.80;;
57463;SDS011;43309;44.418;26.122;2023-01-28T06:05:13;3.80;;;1.80;;
57463;SDS011;43309;44.418;26.122;2023-01-28T06:07:43;2.30;;;1.60;;
57463;SDS011;43309;44.418;26.122;2023-01-28T06:10:11;3.00;;;1.70;;
57463;SDS011;43309;44.418;26.122;2023-01-28T06:12:38;6.40;;;1.60;;
57463;SDS011;43309;44.418;26.122;2023-01-28T06:15:06;2.70;;;1.80;;
57463;SDS011;43309;44.418;26.122;2023-01-28T06:17:33;3.40;;;1.50;;
57463;SDS011;43309;44.418;26.122;2023-01-28T06:20:00;3.00;;;1.80;;
57463;SDS011;43309;44.418;26.122;2023-01-28T06:22:28;2.50;;;1.70;;
57463;SDS011;43309;44.418;26.122;2023-01-28T06:24:55;1.90;;;1.70;;
57463;SDS011;43309;44.418;26.122;2023-01-28T06:27:22;2.10;;;1.70;;
57463;SDS011;43309;44.418;26.122;2023-01-28T06:29:49;2.50;;;1.80;;
57463;SDS011;43309;44.418;26.122;2023-01-28T06:32:16;1.80;;;1.70;;
57463;SDS011;43309;44.418;26.122;2023-01-28T06:34:44;3.20;;;1.60;;
57463;SDS011;43309;44.418;26.122;2023-01-28T06:37:12;4.20;;;1.70;;
57463;SDS011;43309;44.418;26.122;2023-01-28T06:39:40;4.10;;;1.70;;
57463;SDS011;43309;44.418;26.122;2023-01-28T06:42:07;2.50;;;1.50;;
57463;SDS011;43309;44.418;26.122;2023-01-28T06:44:34;3.90;;;1.80;;
57463;SDS011;43309;44.418;26.122;2023-01-28T06:47:02;3.50;;;1.80;;
57463;SDS011;43309;44.418;26.122;2023-01-28T06:49:29;2.20;;;1.60;;
57463;SDS011;43309;44.418;26.122;2023-01-28T06:51:56;2.40;;;1.70;;
57463;SDS011;43309;44.418;26.122;2023-01-28T06:54:23;3.40;;;1.50;;
57463;SDS011;43309;44.418;26.122;2023-01-28T06:56:50;1.60;;;1.50;;
57463;SDS011;43309;44.418;26.122;2023-01-28T06:59:18;1.60;;;1.50;;
57463;SDS011;43309;44.418;26.122;2023-01-28T07:01:45;2.40;;;1.70;;
57463;SDS011;43309;44.418;26.122;2023-01-28T07:04:12;1.90;;;1.60;;
57463;SDS011;43309;44.418;26.122;2023-01-28T07:06:39;3.40;;;1.60;;
57463;SDS011;43309;44.418;26.122;2023-01-28T07:09:07;2.80;;;1.80;;
57463;SDS011;43309;44.418;26.122;2023-01-28T07:11:34;2.00;;;1.80;;
57463;SDS011;43309;44.418;26.122;2023-01-28T07:14:01;4.50;;;1.60;;
57463;SDS011;43309;44.418;26.122;2023-01-28T07:16:29;3.30;;;1.80;;
57463;SDS011;43309;44.418;26.122;2023-01-28T07:18:56;10.90;;;1.80;;
57463;SDS011;43309;44.418;26.122;2023-01-28T07:21:23;4.20;;;1.90;;
57463;SDS011;43309;44.418;26.122;2023-01-28T07:23:50;3.30;;;1.50;;
57463;SDS011;43309;44.418;26.122;2023-01-28T07:26:17;2.90;;;1.50;;
57463;SDS011;43309;44.418;26.122;2023-01-28T07:28:45;4.30;;;1.50;;
57463;SDS011;43309;44.418;26.122;2023-01-28T07:31:13;5.80;;;1.70;;
57463;SDS011;43309;44.418;26.122;2023-01-28T07:33:40;8.90;;;2.10;;
57463;SDS011;43309;44.418;26.122;2023-01-28T07:36:07;6.40;;;1.50;;
57463;SDS011;43309;44.418;26.122;2023-01-28T07:38:35;7.70;;;1.90;;
57463;SDS011;43309;44.418;26.122;2023-01-28T07:41:04;3.30;;;1.60;;
57463;SDS011;43309;44.418;26.122;2023-01-28T07:43:31;9.90;;;2.00;;
57463;SDS011;43309;44.418;26.122;2023-01-28T07:46:01;6.30;;;1.90;;
57463;SDS011;43309;44.418;26.122;2023-01-28T07:48:28;5.10;;;1.70;;
57463;SDS011;43309;44.418;26.122;2023-01-28T07:50:58;5.50;;;1.80;;
57463;SDS011;43309;44.418;26.122;2023-01-28T07:53:26;10.50;;;1.80;;
57463;SDS011;43309;44.418;26.122;2023-01-28T07:56:00;9.10;;;2.40;;
57463;SDS011;43309;44.418;26.122;2023-01-28T07:58:28;5.90;;;1.90;;
57463;SDS011;43309;44.418;26.122;2023-01-28T08:00:56;7.10;;;1.70;;
57463;SDS011;43309;44.418;26.122;2023-01-28T08:03:24;4.00;;;2.10;;
57463;SDS011;43309;44.418;26.122;2023-01-28T08:05:53;2.60;;;1.30;;
57463;SDS011;43309;44.418;26.122;2023-01-28T08:08:22;7.60;;;1.60;;
57463;SDS011;43309;44.418;26.122;2023-01-28T08:10:51;4.30;;;1.60;;
57463;SDS011;43309;44.418;26.122;2023-01-28T08:13:19;3.70;;;1.60;;
57463;SDS011;43309;44.418;26.122;2023-01-28T08:15:46;7.10;;;1.90;;
57463;SDS011;43309;44.418;26.122;2023-01-28T08:18:14;7.40;;;1.70;;
57463;SDS011;43309;44.418;26.122;2023-01-28T08:20:42;12.10;;;2.10;;
57463;SDS011;43309;44.418;26.122;2023-01-28T08:23:11;18.10;;;2.00;;
57463;SDS011;43309;44.418;26.122;2023-01-28T08:25:40;10.60;;;2.50;;
57463;SDS011;43309;44.418;26.122;2023-01-28T08:28:08;14.80;;;3.10;;
57463;SDS011;43309;44.418;26.122;2023-01-28T08:30:36;10.80;;;3.40;;
57463;SDS011;43309;44.418;26.122;2023-01-28T08:33:05;10.20;;;2.70;;
57463;SDS011;43309;44.418;26.122;2023-01-28T08:35:34;14.90;;;2.60;;
57463;SDS011;43309;44.418;26.122;2023-01-28T08:38:02;10.60;;;2.30;;
57463;SDS011;43309;44.418;26.122;2023-01-28T08:40:30;12.60;;;2.80;;
57463;SDS011;43309;44.418;26.122;2023-01-28T08:42:58;11.80;;;2.40;;
57463;SDS011;43309;44.418;26.122;2023-01-28T08:45:26;20.50;;;3.00;;
57463;SDS011;43309;44.418;26.122;2023-01-28T08:47:58;18.70;;;2.80;;
57463;SDS011;43309;44.418;26.122;2023-01-28T08:50:35;23.20;;;2.90;;
57463;SDS011;43309;44.418;26.122;2023-01-28T08:53:05;18.20;;;3.30;;
57463;SDS011;43309;44.418;26.122;2023-01-28T08:55:33;18.20;;;3.30;;
57463;SDS011;43309;44.418;26.122;2023-01-28T08:58:02;14.80;;;2.90;;
57463;SDS011;43309;44.418;26.122;2023-01-28T09:00:30;10.30;;;3.10;;
57463;SDS011;43309;44.418;26.122;2023-01-28T09:02:58;14.10;;;3.20;;
57463;SDS011;43309;44.418;26.122;2023-01-28T09:05:25;8.20;;;2.90;;
57463;SDS011;43309;44.418;26.122;2023-01-28T09:07:53;15.90;;;3.20;;
57463;SDS011;43309;44.418;26.122;2023-01-28T09:10:20;11.90;;;3.10;;
57463;SDS011;43309;44.418;26.122;2023-01-28T09:12:47;15.60;;;3.30;;
57463;SDS011;43309;44.418;26.122;2023-01-28T09:15:15;11.00;;;2.70;;
57463;SDS011;43309;44.418;26.122;2023-01-28T09:17:43;14.80;;;2.70;;
57463;SDS011;43309;44.418;26.122;2023-01-28T09:20:11;12.20;;;2.90;;
57463;SDS011;43309;44.418;26.122;2023-01-28T09:22:38;13.90;;;3.30;;
57463;SDS011;43309;44.418;26.122;2023-01-28T09:25:06;8.70;;;3.10;;
57463;SDS011;43309;44.418;26.122;2023-01-28T09:27:33;13.50;;;3.20;;
57463;SDS011;43309;44.418;26.122;2023-01-28T09:30:00;12.30;;;3.00;;
57463;SDS011;43309;44.418;26.122;2023-01-28T09:32:28;9.30;;;3.40;;
57463;SDS011;43309;44.418;26.122;2023-01-28T09:34:56;9.80;;;3.30;;
57463;SDS011;43309;44.418;26.122;2023-01-28T09:37:24;14.40;;;3.70;;
57463;SDS011;43309;44.418;26.122;2023-01-28T09:39:51;13.10;;;3.70;;
57463;SDS011;43309;44.418;26.122;2023-01-28T09:45:14;9.60;;;4.30;;
57463;SDS011;43309;44.418;26.122;2023-01-28T09:47:55;13.10;;;4.60;;
57463;SDS011;43309;44.418;26.122;2023-01-28T09:52:55;8.70;;;4.10;;
57463;SDS011;43309;44.418;26.122;2023-01-28T09:57:57;10.00;;;4.20;;
57463;SDS011;43309;44.418;26.122;2023-01-28T10:00:29;11.10;;;5.20;;
57463;SDS011;43309;44.418;26.122;2023-01-28T10:05:42;11.10;;;5.00;;
57463;SDS011;43309;44.418;26.122;2023-01-28T10:13:46;10.00;;;4.60;;
57463;SDS011;43309;44.418;26.122;2023-01-28T10:19:13;10.00;;;5.10;;
57463;SDS011;43309;44.418;26.122;2023-01-28T10:24:25;26.50;;;6.80;;
57463;SDS011;43309;44.418;26.122;2023-01-28T10:26:56;220.00;;;45.00;;
57463;SDS011;43309;44.418;26.122;2023-01-28T10:29:25;173.10;;;38.70;;
57463;SDS011;43309;44.418;26.122;2023-01-28T10:31:58;144.20;;;33.10;;
57463;SDS011;43309;44.418;26.122;2023-01-28T10:34:30;145.30;;;33.10;;
57463;SDS011;43309;44.418;26.122;2023-01-28T10:36:57;183.60;;;36.70;;
57463;SDS011;43309;44.418;26.122;2023-01-28T10:39:25;150.80;;;36.30;;
57463;SDS011;43309;44.418;26.122;2023-01-28T10:41:52;159.40;;;36.80;;
57463;SDS011;43309;44.418;26.122;2023-01-28T10:44:37;167.40;;;37.40;;
57463;SDS011;43309;44.418;26.122;2023-01-28T10:47:32;127.40;;;34.30;;
57463;SDS011;43309;44.418;26.122;2023-01-28T10:49:59;154.60;;;36.20;;
57463;SDS011;43309;44.418;26.122;2023-01-28T10:52:27;136.80;;;33.50;;
57463;SDS011;43309;44.418;26.122;2023-01-28T10:55:01;151.60;;;35.30;;
57463;SDS011;43309;44.418;26.122;2023-01-28T10:57:34;131.30;;;34.50;;
57463;SDS011;43309;44.418;26.122;2023-01-28T11:00:11;136.90;;;34.60;;
57463;SDS011;43309;44.418;26.122;2023-01-28T11:05:23;131.50;;;33.10;;
57463;SDS011;43309;44.418;26.122;2023-01-28T11:08:02;119.20;;;32.50;;
57463;SDS011;43309;44.418;26.122;2023-01-28T11:13:00;116.30;;;32.10;;
57463;SDS011;43309;44.418;26.122;2023-01-28T11:15:30;120.70;;;32.60;;
57463;SDS011;43309;44.418;26.122;2023-01-28T11:17:59;116.70;;;30.70;;
57463;SDS011;43309;44.418;26.122;2023-01-28T11:20:29;113.90;;;31.60;;
57463;SDS011;43309;44.418;26.122;2023-01-28T11:23:00;106.60;;;30.30;;
57463;SDS011;43309;44.418;26.122;2023-01-28T11:25:32;111.90;;;31.30;;
57463;SDS011;43309;44.418;26.122;2023-01-28T11:28:02;80.40;;;24.10;;
57463;SDS011;43309;44.418;26.122;2023-01-28T11:30:32;53.30;;;19.10;;
57463;SDS011;43309;44.418;26.122;2023-01-28T11:36:23;43.20;;;14.30;;
57463;SDS011;43309;44.418;26.122;2023-01-28T11:38:50;32.90;;;12.00;;
57463;SDS011;43309;44.418;26.122;2023-01-28T11:41:23;27.20;;;10.10;;
57463;SDS011;43309;44.418;26.122;2023-01-28T11:43:53;24.70;;;10.00;;
57463;SDS011;43309;44.418;26.122;2023-01-28T11:46:31;23.10;;;9.50;;
57463;SDS011;43309;44.418;26.122;2023-01-28T11:51:50;28.70;;;9.60;;
57463;SDS011;43309;44.418;26.122;2023-01-28T12:02:36;41.30;;;9.70;;
57463;SDS011;43309;44.418;26.122;2023-01-28T12:10:38;23.80;;;8.30;;
57463;SDS011;43309;44.418;26.122;2023-01-28T12:13:30;18.40;;;7.80;;
57463;SDS011;43309;44.418;26.122;2023-01-28T12:24:05;11.90;;;6.30;;
57463;SDS011;43309;44.418;26.122;2023-01-28T12:42:59;7.50;;;4.70;;
57463;SDS011;43309;44.418;26.122;2023-01-28T12:45:36;10.30;;;4.60;;
57463;SDS011;43309;44.418;26.122;2023-01-28T12:48:13;11.40;;;4.70;;
57463;SDS011;43309;44.418;26.122;2023-01-28T12:51:06;7.90;;;4.70;;
57463;SDS011;43309;44.418;26.122;2023-01-28T12:53:45;9.50;;;4.40;;
57463;SDS011;43309;44.418;26.122;2023-01-28T13:01:24;11.40;;;4.40;;
57463;SDS011;43309;44.418;26.122;2023-01-28T13:04:08;13.40;;;4.50;;
57463;SDS011;43309;44.418;26.122;2023-01-28T13:06:57;8.80;;;4.60;;
57463;SDS011;43309;44.418;26.122;2023-01-28T13:09:28;8.70;;;4.40;;
57463;SDS011;43309;44.418;26.122;2023-01-28T13:11:56;7.50;;;4.50;;
57463;SDS011;43309;44.418;26.122;2023-01-28T13:14:28;7.30;;;4.30;;
57463;SDS011;43309;44.418;26.122;2023-01-28T13:17:10;10.00;;;4.30;;
57463;SDS011;43309;44.418;26.122;2023-01-28T13:19:39;11.60;;;4.70;;
57463;SDS011;43309;44.418;26.122;2023-01-28T13:24:53;8.60;;;4.60;;
57463;SDS011;43309;44.418;26.122;2023-01-28T13:27:24;8.00;;;4.80;;
57463;SDS011;43309;44.418;26.122;2023-01-28T13:30:00;8.90;;;4.60;;
57463;SDS011;43309;44.418;26.122;2023-01-28T13:32:32;9.20;;;4.60;;
57463;SDS011;43309;44.418;26.122;2023-01-28T13:35:02;7.70;;;4.80;;
57463;SDS011;43309;44.418;26.122;2023-01-28T13:37:38;9.70;;;4.60;;
57463;SDS011;43309;44.418;26.122;2023-01-28T13:42:40;8.30;;;4.60;;
57463;SDS011;43309;44.418;26.122;2023-01-28T13:45:29;8.60;;;4.70;;
57463;SDS011;43309;44.418;26.122;2023-01-28T13:48:12;12.30;;;5.40;;
57463;SDS011;43309;44.418;26.122;2023-01-28T13:50:41;9.10;;;4.10;;
57463;SDS011;43309;44.418;26.122;2023-01-28T13:53:21;10.10;;;4.50;;
57463;SDS011;43309;44.418;26.122;2023-01-28T13:56:16;8.80;;;4.20;;
57463;SDS011;43309;44.418;26.122;2023-01-28T14:09:29;9.20;;;4.60;;
57463;SDS011;43309;44.418;26.122;2023-01-28T14:22:46;7.00;;;4.70;;
57463;SDS011;43309;44.418;26.122;2023-01-28T14:25:15;8.20;;;4.40;;
57463;SDS011;43309;44.418;26.122;2023-01-28T14:27:54;5.10;;;4.10;;
57463;SDS011;43309;44.418;26.122;2023-01-28T14:35:33;5.50;;;4.10;;
57463;SDS011;43309;44.418;26.122;2023-01-28T14:38:06;8.80;;;4.30;;
57463;SDS011;43309;44.418;26.122;2023-01-28T14:40:36;9.40;;;4.70;;
57463;SDS011;43309;44.418;26.122;2023-01-28T14:43:08;7.70;;;4.10;;
57463;SDS011;43309;44.418;26.122;2023-01-28T14:59:17;6.20;;;4.30;;
57463;SDS011;43309;44.418;26.122;2023-01-28T15:01:47;5.80;;;3.80;;
57463;SDS011;43309;44.418;26.122;2023-01-28T15:06:56;6.00;;;4.00;;
57463;SDS011;43309;44.418;26.122;2023-01-28T15:09:27;6.30;;;4.30;;
57463;SDS011;43309;44.418;26.122;2023-01-28T15:11:55;6.00;;;4.00;;
57463;SDS011;43309;44.418;26.122;2023-01-28T15:14:28;5.20;;;3.70;;
57463;SDS011;43309;44.418;26.122;2023-01-28T15:16:57;7.10;;;3.90;;
57463;SDS011;43309;44.418;26.122;2023-01-28T15:19:26;5.70;;;3.60;;
57463;SDS011;43309;44.418;26.122;2023-01-28T15:21:55;3.80;;;3.50;;
57463;SDS011;43309;44.418;26.122;2023-01-28T15:24:25;4.90;;;3.70;;
57463;SDS011;43309;44.418;26.122;2023-01-28T15:26:52;5.30;;;3.70;;
57463;SDS011;43309;44.418;26.122;2023-01-28T15:29:23;4.00;;;3.60;;
57463;SDS011;43309;44.418;26.122;2023-01-28T15:31:54;4.60;;;3.80;;
57463;SDS011;43309;44.418;26.122;2023-01-28T15:34:21;7.00;;;3.80;;
57463;SDS011;43309;44.418;26.122;2023-01-28T15:36:56;4.30;;;3.60;;
57463;SDS011;43309;44.418;26.122;2023-01-28T15:39:27;6.20;;;3.90;;
57463;SDS011;43309;44.418;26.122;2023-01-28T15:44:31;5.30;;;3.60;;
57463;SDS011;43309;44.418;26.122;2023-01-28T15:47:00;4.60;;;3.20;;
57463;SDS011;43309;44.418;26.122;2023-01-28T15:49:30;6.10;;;3.80;;
57463;SDS011;43309;44.418;26.122;2023-01-28T15:52:00;4.20;;;3.60;;
57463;SDS011;43309;44.418;26.122;2023-01-28T15:54:27;5.60;;;3.60;;
57463;SDS011;43309;44.418;26.122;2023-01-28T15:56:56;7.20;;;3.60;;
57463;SDS011;43309;44.418;26.122;2023-01-28T15:59:35;7.10;;;3.60;;
57463;SDS011;43309;44.418;26.122;2023-01-28T16:04:58;8.80;;;3.50;;
57463;SDS011;43309;44.418;26.122;2023-01-28T16:07:28;10.40;;;3.70;;
57463;SDS011;43309;44.418;26.122;2023-01-28T16:09:58;6.90;;;3.30;;
57463;SDS011;43309;44.418;26.122;2023-01-28T16:12:28;6.80;;;3.80;;
57463;SDS011;43309;44.418;26.122;2023-01-28T16:14:56;7.30;;;3.60;;
57463;SDS011;43309;44.418;26.122;2023-01-28T16:17:37;5.90;;;3.60;;
57463;SDS011;43309;44.418;26.122;2023-01-28T16:20:07;7.10;;;3.30;;
57463;SDS011;43309;44.418;26.122;2023-01-28T16:22:45;9.70;;;3.40;;
57463;SDS011;43309;44.418;26.122;2023-01-28T16:27:55;7.10;;;3.80;;
57463;SDS011;43309;44.418;26.122;2023-01-28T16:30:23;7.60;;;3.70;;
57463;SDS011;43309;44.418;26.122;2023-01-28T16:32:50;4.30;;;3.10;;
57463;SDS011;43309;44.418;26.122;2023-01-28T16:35:19;6.40;;;3.40;;
57463;SDS011;43309;44.418;26.122;2023-01-28T16:37:48;5.10;;;2.70;;
57463;SDS011;43309;44.418;26.122;2023-01-28T16:40:17;7.90;;;3.40;;
57463;SDS011;43309;44.418;26.122;2023-01-28T16:42:46;9.90;;;3.80;;
57463;SDS011;43309;44.418;26.122;2023-01-28T16:45:17;5.50;;;3.30;;
57463;SDS011;43309;44.418;26.122;2023-01-28T16:47:46;8.80;;;3.20;;
57463;SDS011;43309;44.418;26.122;2023-01-28T16:50:14;9.70;;;3.70;;
57463;SDS011;43309;44.418;26.122;2023-01-28T16:52:43;7.10;;;3.30;;
57463;SDS011;43309;44.418;26.122;2023-01-28T16:55:15;8.50;;;3.90;;
57463;SDS011;43309;44.418;26.122;2023-01-28T16:57:44;6.30;;;3.30;;
57463;SDS011;43309;44.418;26.122;2023-01-28T17:00:15;5.20;;;3.20;;
57463;SDS011;43309;44.418;26.122;2023-01-28T17:02:45;5.90;;;3.20;;
57463;SDS011;43309;44.418;26.122;2023-01-28T17:05:12;6.00;;;3.40;;
57463;SDS011;43309;44.418;26.122;2023-01-28T17:07:41;5.60;;;3.20;;
57463;SDS011;43309;44.418;26.122;2023-01-28T17:10:09;5.70;;;3.40;;
57463;SDS011;43309;44.418;26.122;2023-01-28T17:12:37;7.90;;;3.30;;
57463;SDS011;43309;44.418;26.122;2023-01-28T17:15:04;6.50;;;3.40;;
57463;SDS011;43309;44.418;26.122;2023-01-28T17:17:33;8.60;;;3.00;;
57463;SDS011;43309;44.418;26.122;2023-01-28T17:20:00;6.30;;;3.30;;
57463;SDS011;43309;44.418;26.122;2023-01-28T17:22:27;18.40;;;3.70;;
57463;SDS011;43309;44.418;26.122;2023-01-28T17:24:54;4.90;;;3.30;;
57463;SDS011;43309;44.418;26.122;2023-01-28T17:27:22;5.10;;;3.10;;